sensor_id;sensor_type;location;lat;lon;timestamp;P1;durP1;ratioP1;P2;durP2;ratioP2
10493;SDS011;5294;49.410;8.698;2022-10-22T00:02:04;4.80;;;2.53;;
10493;SDS011;5294;49.410;8.698;2022-10-22T00:04:35;2.97;;;2.20;;
10493;SDS011;5294;49.410;8.698;2022-10-22T00:07:01;2.70;;;2.50;;
10493;SDS011;5294;49.410;8.698;2022-10-22T00:09:26;3.67;;;2.13;;
10493;SDS011;5294;49.410;8.698;2022-10-22T00:11:54;3.10;;;2.47;;
10493;SDS011;5294;49.410;8.698;2022-10-22T00:14:22;2.40;;;2.20;;
10493;SDS011;5294;49.410;8.698;2022-10-22T00:16:50;2.53;;;2.00;;
10493;SDS011;5294;49.410;8.698;2022-10-22T00:19:18;4.33;;;2.17;;
10493;SDS011;5294;49.410;8.698;2022-10-22T00:21:48;3.60;;;2.27;;
10493;SDS011;5294;49.410;8.698;2022-10-22T00:24:13;4.03;;;2.27;;
10493;SDS011;5294;49.410;8.698;2022-10-22T00:26:39;4.07;;;1.97;;
10493;SDS011;5294;49.410;8.698;2022-10-22T00:29:07;1.97;;;1.83;;
10493;SDS011;5294;49.410;8.698;2022-10-22T00:31:33;2.37;;;2.13;;
10493;SDS011;5294;49.410;8.698;2022-10-22T00:33:58;2.47;;;2.27;;
10493;SDS011;5294;49.410;8.698;2022-10-22T00:36:26;2.50;;;2.30;;
10493;SDS011;5294;49.410;8.698;2022-10-22T00:38:54;2.57;;;2.30;;
10493;SDS011;5294;49.410;8.698;2022-10-22T00:41:20;2.83;;;2.20;;
10493;SDS011;5294;49.410;8.698;2022-10-22T00:43:55;2.30;;;2.10;;
10493;SDS011;5294;49.410;8.698;2022-10-22T00:46:25;3.20;;;2.60;;
10493;SDS011;5294;49.410;8.698;2022-10-22T00:48:56;2.57;;;2.30;;
10493;SDS011;5294;49.410;8.698;2022-10-22T00:51:25;2.40;;;2.20;;
10493;SDS011;5294;49.410;8.698;2022-10-22T00:53:59;4.57;;;2.43;;
10493;SDS011;5294;49.410;8.698;2022-10-22T00:56:30;2.43;;;2.23;;
10493;SDS011;5294;49.410;8.698;2022-10-22T00:58:59;2.23;;;2.07;;
10493;SDS011;5294;49.410;8.698;2022-10-22T01:01:27;2.43;;;2.13;;
10493;SDS011;5294;49.410;8.698;2022-10-22T01:03:57;1.77;;;1.50;;
10493;SDS011;5294;49.410;8.698;2022-10-22T01:06:25;2.23;;;1.53;;
10493;SDS011;5294;49.410;8.698;2022-10-22T01:09:00;2.10;;;1.30;;
10493;SDS011;5294;49.410;8.698;2022-10-22T01:11:51;1.80;;;1.70;;
10493;SDS011;5294;49.410;8.698;2022-10-22T01:14:43;3.00;;;1.40;;
10493;SDS011;5294;49.410;8.698;2022-10-22T01:23:01;2.37;;;1.73;;
10493;SDS011;5294;49.410;8.698;2022-10-22T01:26:03;2.97;;;1.53;;
10493;SDS011;5294;49.410;8.698;2022-10-22T01:31:17;1.93;;;1.23;;
10493;SDS011;5294;49.410;8.698;2022-10-22T01:33:46;1.43;;;1.33;;
10493;SDS011;5294;49.410;8.698;2022-10-22T01:36:21;2.30;;;1.70;;
10493;SDS011;5294;49.410;8.698;2022-10-22T01:38:51;1.57;;;1.30;;
10493;SDS011;5294;49.410;8.698;2022-10-22T01:41:18;2.30;;;1.37;;
10493;SDS011;5294;49.410;8.698;2022-10-22T01:43:46;1.37;;;1.27;;
10493;SDS011;5294;49.410;8.698;2022-10-22T01:46:12;1.47;;;1.37;;
10493;SDS011;5294;49.410;8.698;2022-10-22T01:57:58;1.77;;;1.20;;
10493;SDS011;5294;49.410;8.698;2022-10-22T02:00:43;3.90;;;1.53;;
10493;SDS011;5294;49.410;8.698;2022-10-22T02:03:22;1.53;;;1.33;;
10493;SDS011;5294;49.410;8.698;2022-10-22T02:06:00;1.60;;;1.50;;
10493;SDS011;5294;49.410;8.698;2022-10-22T02:08:34;2.77;;;1.77;;
10493;SDS011;5294;49.410;8.698;2022-10-22T02:11:03;1.37;;;1.27;;
10493;SDS011;5294;49.410;8.698;2022-10-22T02:13:40;2.40;;;1.73;;
10493;SDS011;5294;49.410;8.698;2022-10-22T02:16:09;3.43;;;1.73;;
10493;SDS011;5294;49.410;8.698;2022-10-22T02:18:41;1.80;;;1.60;;
10493;SDS011;5294;49.410;8.698;2022-10-22T02:21:10;2.00;;;1.80;;
10493;SDS011;5294;49.410;8.698;2022-10-22T02:23:39;2.40;;;1.57;;
10493;SDS011;5294;49.410;8.698;2022-10-22T02:29:05;1.90;;;1.80;;
10493;SDS011;5294;49.410;8.698;2022-10-22T02:31:39;1.80;;;1.70;;
10493;SDS011;5294;49.410;8.698;2022-10-22T02:34:10;3.03;;;2.10;;
10493;SDS011;5294;49.410;8.698;2022-10-22T02:36:39;2.20;;;2.10;;
10493;SDS011;5294;49.410;8.698;2022-10-22T02:39:09;1.60;;;1.50;;
10493;SDS011;5294;49.410;8.698;2022-10-22T02:41:39;1.70;;;1.60;;
10493;SDS011;5294;49.410;8.698;2022-10-22T02:44:10;1.70;;;1.60;;
10493;SDS011;5294;49.410;8.698;2022-10-22T02:46:41;1.43;;;1.43;;
10493;SDS011;5294;49.410;8.698;2022-10-22T02:49:07;1.80;;;1.67;;
10493;SDS011;5294;49.410;8.698;2022-10-22T02:51:33;1.40;;;1.30;;
10493;SDS011;5294;49.410;8.698;2022-10-22T02:54:01;3.67;;;1.40;;
10493;SDS011;5294;49.410;8.698;2022-10-22T02:56:26;1.80;;;1.30;;
10493;SDS011;5294;49.410;8.698;2022-10-22T02:58:52;2.07;;;1.40;;
10493;SDS011;5294;49.410;8.698;2022-10-22T03:01:17;1.20;;;1.20;;
10493;SDS011;5294;49.410;8.698;2022-10-22T03:03:48;1.17;;;0.93;;
10493;SDS011;5294;49.410;8.698;2022-10-22T03:06:14;2.27;;;1.47;;
10493;SDS011;5294;49.410;8.698;2022-10-22T03:08:44;1.77;;;1.10;;
10493;SDS011;5294;49.410;8.698;2022-10-22T03:11:10;1.03;;;1.03;;
10493;SDS011;5294;49.410;8.698;2022-10-22T03:13:37;2.97;;;1.93;;
10493;SDS011;5294;49.410;8.698;2022-10-22T03:16:03;2.67;;;1.33;;
10493;SDS011;5294;49.410;8.698;2022-10-22T03:18:31;1.37;;;1.27;;
10493;SDS011;5294;49.410;8.698;2022-10-22T03:21:00;1.47;;;1.20;;
10493;SDS011;5294;49.410;8.698;2022-10-22T03:23:33;1.57;;;1.20;;
10493;SDS011;5294;49.410;8.698;2022-10-22T03:26:02;3.03;;;1.37;;
10493;SDS011;5294;49.410;8.698;2022-10-22T03:28:31;1.40;;;1.30;;
10493;SDS011;5294;49.410;8.698;2022-10-22T03:30:58;1.10;;;1.00;;
10493;SDS011;5294;49.410;8.698;2022-10-22T03:33:24;1.53;;;1.20;;
10493;SDS011;5294;49.410;8.698;2022-10-22T03:35:52;1.50;;;1.37;;
10493;SDS011;5294;49.410;8.698;2022-10-22T03:38:20;1.60;;;1.27;;
10493;SDS011;5294;49.410;8.698;2022-10-22T03:40:45;3.23;;;1.90;;
10493;SDS011;5294;49.410;8.698;2022-10-22T03:43:14;2.40;;;1.40;;
10493;SDS011;5294;49.410;8.698;2022-10-22T03:45:40;1.57;;;1.27;;
10493;SDS011;5294;49.410;8.698;2022-10-22T03:48:05;1.53;;;1.30;;
10493;SDS011;5294;49.410;8.698;2022-10-22T03:50:31;1.07;;;0.97;;
10493;SDS011;5294;49.410;8.698;2022-10-22T03:52:57;2.83;;;1.30;;
10493;SDS011;5294;49.410;8.698;2022-10-22T03:55:25;1.70;;;1.20;;
10493;SDS011;5294;49.410;8.698;2022-10-22T03:57:50;1.53;;;1.23;;
10493;SDS011;5294;49.410;8.698;2022-10-22T04:00:16;3.13;;;1.47;;
10493;SDS011;5294;49.410;8.698;2022-10-22T04:02:41;1.60;;;1.50;;
10493;SDS011;5294;49.410;8.698;2022-10-22T04:05:10;1.20;;;1.20;;
10493;SDS011;5294;49.410;8.698;2022-10-22T04:07:37;2.57;;;1.33;;
10493;SDS011;5294;49.410;8.698;2022-10-22T04:10:08;1.50;;;1.33;;
10493;SDS011;5294;49.410;8.698;2022-10-22T04:12:33;1.30;;;1.20;;
10493;SDS011;5294;49.410;8.698;2022-10-22T04:14:59;1.50;;;1.40;;
10493;SDS011;5294;49.410;8.698;2022-10-22T04:17:25;2.03;;;1.30;;
10493;SDS011;5294;49.410;8.698;2022-10-22T04:19:52;1.80;;;1.13;;
10493;SDS011;5294;49.410;8.698;2022-10-22T04:22:18;1.57;;;1.47;;
10493;SDS011;5294;49.410;8.698;2022-10-22T04:24:43;1.80;;;1.70;;
10493;SDS011;5294;49.410;8.698;2022-10-22T04:27:09;1.80;;;1.70;;
10493;SDS011;5294;49.410;8.698;2022-10-22T04:29:37;1.40;;;1.30;;
10493;SDS011;5294;49.410;8.698;2022-10-22T04:32:07;2.50;;;1.73;;
10493;SDS011;5294;49.410;8.698;2022-10-22T04:34:35;1.73;;;1.67;;
10493;SDS011;5294;49.410;8.698;2022-10-22T04:37:00;1.63;;;1.53;;
10493;SDS011;5294;49.410;8.698;2022-10-22T04:39:29;2.70;;;1.60;;
10493;SDS011;5294;49.410;8.698;2022-10-22T04:41:54;3.27;;;1.70;;
10493;SDS011;5294;49.410;8.698;2022-10-22T04:44:20;3.70;;;2.20;;
10493;SDS011;5294;49.410;8.698;2022-10-22T04:46:46;1.90;;;1.70;;
10493;SDS011;5294;49.410;8.698;2022-10-22T04:49:13;1.87;;;1.67;;
10493;SDS011;5294;49.410;8.698;2022-10-22T04:51:42;2.03;;;1.47;;
10493;SDS011;5294;49.410;8.698;2022-10-22T04:54:10;1.60;;;1.47;;
10493;SDS011;5294;49.410;8.698;2022-10-22T04:56:36;2.10;;;1.60;;
10493;SDS011;5294;49.410;8.698;2022-10-22T04:59:03;1.60;;;1.50;;
10493;SDS011;5294;49.410;8.698;2022-10-22T05:01:34;1.83;;;1.73;;
10493;SDS011;5294;49.410;8.698;2022-10-22T05:04:04;2.47;;;1.83;;
10493;SDS011;5294;49.410;8.698;2022-10-22T05:06:34;2.10;;;1.80;;
10493;SDS011;5294;49.410;8.698;2022-10-22T05:09:02;1.87;;;1.60;;
10493;SDS011;5294;49.410;8.698;2022-10-22T05:11:34;1.60;;;1.50;;
10493;SDS011;5294;49.410;8.698;2022-10-22T05:14:02;2.60;;;2.00;;
10493;SDS011;5294;49.410;8.698;2022-10-22T05:16:30;3.80;;;1.90;;
10493;SDS011;5294;49.410;8.698;2022-10-22T05:18:59;2.90;;;1.83;;
10493;SDS011;5294;49.410;8.698;2022-10-22T05:21:25;2.80;;;2.00;;
10493;SDS011;5294;49.410;8.698;2022-10-22T05:23:52;1.83;;;1.73;;
10493;SDS011;5294;49.410;8.698;2022-10-22T05:26:21;1.67;;;1.50;;
10493;SDS011;5294;49.410;8.698;2022-10-22T05:28:49;2.63;;;2.00;;
10493;SDS011;5294;49.410;8.698;2022-10-22T05:31:17;1.43;;;1.33;;
10493;SDS011;5294;49.410;8.698;2022-10-22T05:33:44;1.50;;;1.40;;
10493;SDS011;5294;49.410;8.698;2022-10-22T05:36:14;1.60;;;1.50;;
10493;SDS011;5294;49.410;8.698;2022-10-22T05:38:44;1.93;;;1.80;;
10493;SDS011;5294;49.410;8.698;2022-10-22T05:41:19;1.87;;;1.77;;
10493;SDS011;5294;49.410;8.698;2022-10-22T05:43:48;1.47;;;1.30;;
10493;SDS011;5294;49.410;8.698;2022-10-22T05:46:16;1.67;;;1.57;;
10493;SDS011;5294;49.410;8.698;2022-10-22T05:48:43;1.40;;;1.30;;
10493;SDS011;5294;49.410;8.698;2022-10-22T05:51:12;1.87;;;1.77;;
10493;SDS011;5294;49.410;8.698;2022-10-22T05:53:39;1.50;;;1.40;;
10493;SDS011;5294;49.410;8.698;2022-10-22T05:56:14;1.30;;;1.20;;
10493;SDS011;5294;49.410;8.698;2022-10-22T05:58:41;2.27;;;1.57;;
10493;SDS011;5294;49.410;8.698;2022-10-22T06:01:11;2.00;;;1.70;;
10493;SDS011;5294;49.410;8.698;2022-10-22T06:03:44;1.60;;;1.50;;
10493;SDS011;5294;49.410;8.698;2022-10-22T06:09:43;1.83;;;1.60;;
10493;SDS011;5294;49.410;8.698;2022-10-22T06:11:58;1.60;;;1.50;;
10493;SDS011;5294;49.410;8.698;2022-10-22T06:14:29;1.63;;;1.53;;
10493;SDS011;5294;49.410;8.698;2022-10-22T06:16:59;1.23;;;1.10;;
10493;SDS011;5294;49.410;8.698;2022-10-22T06:19:25;1.67;;;1.57;;
10493;SDS011;5294;49.410;8.698;2022-10-22T06:21:51;2.23;;;1.30;;
10493;SDS011;5294;49.410;8.698;2022-10-22T06:24:19;3.00;;;1.83;;
10493;SDS011;5294;49.410;8.698;2022-10-22T06:26:47;1.17;;;1.17;;
10493;SDS011;5294;49.410;8.698;2022-10-22T06:29:16;2.33;;;1.37;;
10493;SDS011;5294;49.410;8.698;2022-10-22T06:31:42;1.10;;;1.10;;
10493;SDS011;5294;49.410;8.698;2022-10-22T06:34:11;1.27;;;1.17;;
10493;SDS011;5294;49.410;8.698;2022-10-22T06:36:38;1.33;;;1.33;;
10493;SDS011;5294;49.410;8.698;2022-10-22T06:39:08;1.30;;;1.13;;
10493;SDS011;5294;49.410;8.698;2022-10-22T06:41:38;1.20;;;1.10;;
10493;SDS011;5294;49.410;8.698;2022-10-22T06:44:07;1.87;;;1.10;;
10493;SDS011;5294;49.410;8.698;2022-10-22T06:46:47;1.30;;;1.20;;
10493;SDS011;5294;49.410;8.698;2022-10-22T06:49:16;1.03;;;1.03;;
10493;SDS011;5294;49.410;8.698;2022-10-22T06:51:43;1.30;;;1.30;;
10493;SDS011;5294;49.410;8.698;2022-10-22T06:54:15;1.50;;;1.40;;
10493;SDS011;5294;49.410;8.698;2022-10-22T06:56:46;2.23;;;1.53;;
10493;SDS011;5294;49.410;8.698;2022-10-22T06:59:11;2.33;;;2.13;;
10493;SDS011;5294;49.410;8.698;2022-10-22T07:01:42;2.00;;;1.90;;
10493;SDS011;5294;49.410;8.698;2022-10-22T07:04:08;1.97;;;1.87;;
10493;SDS011;5294;49.410;8.698;2022-10-22T07:06:34;2.43;;;1.70;;
10493;SDS011;5294;49.410;8.698;2022-10-22T07:09:05;2.07;;;1.97;;
10493;SDS011;5294;49.410;8.698;2022-10-22T07:11:41;2.33;;;2.03;;
10493;SDS011;5294;49.410;8.698;2022-10-22T07:14:12;2.60;;;2.00;;
10493;SDS011;5294;49.410;8.698;2022-10-22T07:16:38;1.80;;;1.70;;
10493;SDS011;5294;49.410;8.698;2022-10-22T07:19:09;1.50;;;1.40;;
10493;SDS011;5294;49.410;8.698;2022-10-22T07:21:35;1.50;;;1.40;;
10493;SDS011;5294;49.410;8.698;2022-10-22T07:24:01;1.20;;;1.20;;
10493;SDS011;5294;49.410;8.698;2022-10-22T07:26:29;1.20;;;1.20;;
10493;SDS011;5294;49.410;8.698;2022-10-22T07:29:00;1.13;;;1.13;;
10493;SDS011;5294;49.410;8.698;2022-10-22T07:31:29;1.33;;;1.33;;
10493;SDS011;5294;49.410;8.698;2022-10-22T07:33:57;1.10;;;1.10;;
10493;SDS011;5294;49.410;8.698;2022-10-22T07:36:23;1.40;;;1.40;;
10493;SDS011;5294;49.410;8.698;2022-10-22T07:38:52;1.90;;;1.37;;
10493;SDS011;5294;49.410;8.698;2022-10-22T07:41:20;1.33;;;1.33;;
10493;SDS011;5294;49.410;8.698;2022-10-22T07:43:45;1.53;;;1.30;;
10493;SDS011;5294;49.410;8.698;2022-10-22T07:46:13;1.83;;;1.17;;
10493;SDS011;5294;49.410;8.698;2022-10-22T07:48:41;1.10;;;1.10;;
10493;SDS011;5294;49.410;8.698;2022-10-22T07:51:09;1.17;;;1.13;;
10493;SDS011;5294;49.410;8.698;2022-10-22T07:53:37;0.97;;;0.83;;
10493;SDS011;5294;49.410;8.698;2022-10-22T07:56:03;1.33;;;1.07;;
10493;SDS011;5294;49.410;8.698;2022-10-22T07:58:31;2.37;;;1.17;;
10493;SDS011;5294;49.410;8.698;2022-10-22T08:00:59;1.57;;;0.63;;
10493;SDS011;5294;49.410;8.698;2022-10-22T08:03:25;0.70;;;0.70;;
10493;SDS011;5294;49.410;8.698;2022-10-22T08:05:52;0.90;;;0.87;;
10493;SDS011;5294;49.410;8.698;2022-10-22T08:08:23;1.40;;;0.70;;
10493;SDS011;5294;49.410;8.698;2022-10-22T08:10:50;1.87;;;1.10;;
10493;SDS011;5294;49.410;8.698;2022-10-22T08:13:17;1.30;;;1.20;;
10493;SDS011;5294;49.410;8.698;2022-10-22T08:15:45;1.70;;;0.80;;
10493;SDS011;5294;49.410;8.698;2022-10-22T08:18:11;0.97;;;0.80;;
10493;SDS011;5294;49.410;8.698;2022-10-22T08:20:37;0.90;;;0.90;;
10493;SDS011;5294;49.410;8.698;2022-10-22T08:23:08;0.70;;;0.70;;
10493;SDS011;5294;49.410;8.698;2022-10-22T08:25:33;1.20;;;1.10;;
10493;SDS011;5294;49.410;8.698;2022-10-22T08:27:59;0.83;;;0.83;;
10493;SDS011;5294;49.410;8.698;2022-10-22T08:30:32;1.63;;;1.53;;
10493;SDS011;5294;49.410;8.698;2022-10-22T08:33:02;1.00;;;0.90;;
10493;SDS011;5294;49.410;8.698;2022-10-22T08:35:30;1.07;;;1.00;;
10493;SDS011;5294;49.410;8.698;2022-10-22T08:37:55;2.03;;;1.07;;
10493;SDS011;5294;49.410;8.698;2022-10-22T08:40:28;1.53;;;1.20;;
10493;SDS011;5294;49.410;8.698;2022-10-22T08:43:11;0.90;;;0.90;;
10493;SDS011;5294;49.410;8.698;2022-10-22T08:51:04;1.53;;;1.13;;
10493;SDS011;5294;49.410;8.698;2022-10-22T08:54:00;1.23;;;1.13;;
10493;SDS011;5294;49.410;8.698;2022-10-22T08:56:37;1.77;;;1.40;;
10493;SDS011;5294;49.410;8.698;2022-10-22T09:01:48;1.50;;;1.33;;
10493;SDS011;5294;49.410;8.698;2022-10-22T09:07:07;1.50;;;1.10;;
10493;SDS011;5294;49.410;8.698;2022-10-22T09:09:35;2.00;;;1.70;;
10493;SDS011;5294;49.410;8.698;2022-10-22T09:12:06;1.73;;;1.00;;
10493;SDS011;5294;49.410;8.698;2022-10-22T09:14:40;1.10;;;1.00;;
10493;SDS011;5294;49.410;8.698;2022-10-22T09:17:15;1.60;;;1.30;;
10493;SDS011;5294;49.410;8.698;2022-10-22T09:27:41;1.67;;;0.97;;
10493;SDS011;5294;49.410;8.698;2022-10-22T09:30:18;1.70;;;1.27;;
10493;SDS011;5294;49.410;8.698;2022-10-22T09:32:53;1.17;;;1.17;;
10493;SDS011;5294;49.410;8.698;2022-10-22T09:35:24;5.00;;;1.67;;
10493;SDS011;5294;49.410;8.698;2022-10-22T09:37:52;1.67;;;1.20;;
10493;SDS011;5294;49.410;8.698;2022-10-22T09:40:20;1.33;;;1.23;;
10493;SDS011;5294;49.410;8.698;2022-10-22T09:42:48;1.47;;;1.00;;
10493;SDS011;5294;49.410;8.698;2022-10-22T09:45:18;1.40;;;1.30;;
10493;SDS011;5294;49.410;8.698;2022-10-22T09:47:45;0.90;;;0.90;;
10493;SDS011;5294;49.410;8.698;2022-10-22T09:50:18;1.30;;;1.20;;
10493;SDS011;5294;49.410;8.698;2022-10-22T09:53:18;1.50;;;1.40;;
10493;SDS011;5294;49.410;8.698;2022-10-22T09:55:48;0.97;;;0.90;;
10493;SDS011;5294;49.410;8.698;2022-10-22T09:58:15;2.37;;;2.00;;
10493;SDS011;5294;49.410;8.698;2022-10-22T10:00:43;2.97;;;1.40;;
10493;SDS011;5294;49.410;8.698;2022-10-22T10:03:17;3.20;;;2.60;;
10493;SDS011;5294;49.410;8.698;2022-10-22T10:05:48;1.33;;;1.23;;
10493;SDS011;5294;49.410;8.698;2022-10-22T10:08:17;2.80;;;1.23;;
10493;SDS011;5294;49.410;8.698;2022-10-22T10:10:53;1.37;;;1.10;;
10493;SDS011;5294;49.410;8.698;2022-10-22T10:19:29;1.20;;;1.10;;
10493;SDS011;5294;49.410;8.698;2022-10-22T10:21:59;2.88;;;1.27;;
10493;SDS011;5294;49.410;8.698;2022-10-22T10:27:51;2.00;;;1.17;;
10493;SDS011;5294;49.410;8.698;2022-10-22T10:30:23;3.28;;;1.33;;
10493;SDS011;5294;49.410;8.698;2022-10-22T10:56:47;2.20;;;1.13;;
10493;SDS011;5294;49.410;8.698;2022-10-22T10:59:34;1.35;;;1.20;;
10493;SDS011;5294;49.410;8.698;2022-10-22T11:10:30;4.35;;;1.80;;
10493;SDS011;5294;49.410;8.698;2022-10-22T11:13:04;2.50;;;1.70;;
10493;SDS011;5294;49.410;8.698;2022-10-22T11:15:44;1.85;;;1.40;;
10493;SDS011;5294;49.410;8.698;2022-10-22T11:18:21;3.13;;;1.38;;
10493;SDS011;5294;49.410;8.698;2022-10-22T11:21:00;1.55;;;1.35;;
10493;SDS011;5294;49.410;8.698;2022-10-22T11:29:21;2.23;;;2.03;;
10493;SDS011;5294;49.410;8.698;2022-10-22T11:31:53;2.43;;;1.70;;
10493;SDS011;5294;49.410;8.698;2022-10-22T11:34:21;3.07;;;1.33;;
10493;SDS011;5294;49.410;8.698;2022-10-22T11:36:51;1.60;;;1.50;;
10493;SDS011;5294;49.410;8.698;2022-10-22T11:39:32;2.73;;;1.63;;
10493;SDS011;5294;49.410;8.698;2022-10-22T11:45:35;2.27;;;1.50;;
10493;SDS011;5294;49.410;8.698;2022-10-22T12:00:52;3.17;;;1.80;;
10493;SDS011;5294;49.410;8.698;2022-10-22T12:03:40;3.40;;;1.80;;
10493;SDS011;5294;49.410;8.698;2022-10-22T12:16:54;1.93;;;1.50;;
10493;SDS011;5294;49.410;8.698;2022-10-22T12:22:10;2.50;;;2.10;;
10493;SDS011;5294;49.410;8.698;2022-10-22T12:24:58;2.97;;;1.70;;
10493;SDS011;5294;49.410;8.698;2022-10-22T12:29:55;2.67;;;1.90;;
10493;SDS011;5294;49.410;8.698;2022-10-22T12:32:34;2.30;;;1.67;;
10493;SDS011;5294;49.410;8.698;2022-10-22T12:35:21;4.63;;;2.00;;
10493;SDS011;5294;49.410;8.698;2022-10-22T12:37:50;1.93;;;1.80;;
10493;SDS011;5294;49.410;8.698;2022-10-22T12:40:19;3.67;;;1.90;;
10493;SDS011;5294;49.410;8.698;2022-10-22T12:42:56;4.37;;;2.57;;
10493;SDS011;5294;49.410;8.698;2022-10-22T12:45:29;5.40;;;4.03;;
10493;SDS011;5294;49.410;8.698;2022-10-22T12:47:56;2.07;;;1.83;;
10493;SDS011;5294;49.410;8.698;2022-10-22T12:50:34;3.37;;;1.83;;
10493;SDS011;5294;49.410;8.698;2022-10-22T12:53:05;2.73;;;1.73;;
10493;SDS011;5294;49.410;8.698;2022-10-22T12:55:49;2.43;;;2.23;;
10493;SDS011;5294;49.410;8.698;2022-10-22T12:58:17;3.40;;;2.03;;
10493;SDS011;5294;49.410;8.698;2022-10-22T13:00:47;4.57;;;2.10;;
10493;SDS011;5294;49.410;8.698;2022-10-22T13:03:38;4.13;;;1.90;;
10493;SDS011;5294;49.410;8.698;2022-10-22T13:09:36;3.50;;;3.00;;
10493;SDS011;5294;49.410;8.698;2022-10-22T13:17:04;3.53;;;1.90;;
10493;SDS011;5294;49.410;8.698;2022-10-22T13:19:39;4.27;;;1.97;;
10493;SDS011;5294;49.410;8.698;2022-10-22T13:22:37;4.63;;;3.40;;
10493;SDS011;5294;49.410;8.698;2022-10-22T13:27:57;3.70;;;2.87;;
10493;SDS011;5294;49.410;8.698;2022-10-22T13:30:37;2.37;;;2.13;;
10493;SDS011;5294;49.410;8.698;2022-10-22T13:33:16;3.60;;;2.13;;
10493;SDS011;5294;49.410;8.698;2022-10-22T13:35:45;2.37;;;2.00;;
10493;SDS011;5294;49.410;8.698;2022-10-22T13:38:17;2.43;;;2.23;;
10493;SDS011;5294;49.410;8.698;2022-10-22T13:40:46;3.17;;;1.87;;
10493;SDS011;5294;49.410;8.698;2022-10-22T13:43:12;2.77;;;1.67;;
10493;SDS011;5294;49.410;8.698;2022-10-22T13:45:41;5.07;;;1.93;;
10493;SDS011;5294;49.410;8.698;2022-10-22T13:48:09;3.33;;;2.27;;
10493;SDS011;5294;49.410;8.698;2022-10-22T13:50:41;5.23;;;2.10;;
10493;SDS011;5294;49.410;8.698;2022-10-22T13:53:08;2.17;;;1.87;;
10493;SDS011;5294;49.410;8.698;2022-10-22T13:55:42;2.37;;;2.17;;
10493;SDS011;5294;49.410;8.698;2022-10-22T13:58:13;3.73;;;1.90;;
10493;SDS011;5294;49.410;8.698;2022-10-22T14:00:47;8.03;;;2.30;;
10493;SDS011;5294;49.410;8.698;2022-10-22T14:03:19;2.83;;;1.97;;
10493;SDS011;5294;49.410;8.698;2022-10-22T14:05:47;3.37;;;2.00;;
10493;SDS011;5294;49.410;8.698;2022-10-22T14:08:20;3.97;;;1.50;;
10493;SDS011;5294;49.410;8.698;2022-10-22T14:10:47;2.07;;;1.57;;
10493;SDS011;5294;49.410;8.698;2022-10-22T14:13:16;4.70;;;2.20;;
10493;SDS011;5294;49.410;8.698;2022-10-22T14:15:42;3.50;;;2.00;;
10493;SDS011;5294;49.410;8.698;2022-10-22T14:18:20;2.47;;;2.07;;
10493;SDS011;5294;49.410;8.698;2022-10-22T14:20:51;2.97;;;1.90;;
10493;SDS011;5294;49.410;8.698;2022-10-22T14:23:24;3.20;;;2.20;;
10493;SDS011;5294;49.410;8.698;2022-10-22T14:25:53;2.03;;;1.70;;
10493;SDS011;5294;49.410;8.698;2022-10-22T14:28:20;3.00;;;1.67;;
10493;SDS011;5294;49.410;8.698;2022-10-22T14:30:46;2.80;;;2.40;;
10493;SDS011;5294;49.410;8.698;2022-10-22T14:33:14;2.93;;;1.77;;
10493;SDS011;5294;49.410;8.698;2022-10-22T14:35:42;3.23;;;2.13;;
10493;SDS011;5294;49.410;8.698;2022-10-22T14:38:07;5.03;;;2.10;;
10493;SDS011;5294;49.410;8.698;2022-10-22T14:40:33;5.00;;;2.20;;
10493;SDS011;5294;49.410;8.698;2022-10-22T14:43:04;5.60;;;2.77;;
10493;SDS011;5294;49.410;8.698;2022-10-22T14:45:32;3.47;;;2.07;;
10493;SDS011;5294;49.410;8.698;2022-10-22T14:47:58;5.57;;;2.47;;
10493;SDS011;5294;49.410;8.698;2022-10-22T14:50:24;6.63;;;2.60;;
10493;SDS011;5294;49.410;8.698;2022-10-22T14:52:50;4.07;;;2.13;;
10493;SDS011;5294;49.410;8.698;2022-10-22T14:55:16;3.57;;;2.30;;
10493;SDS011;5294;49.410;8.698;2022-10-22T14:57:43;2.80;;;2.07;;
10493;SDS011;5294;49.410;8.698;2022-10-22T15:00:13;6.40;;;2.30;;
10493;SDS011;5294;49.410;8.698;2022-10-22T15:02:42;3.73;;;2.33;;
10493;SDS011;5294;49.410;8.698;2022-10-22T15:05:11;4.33;;;2.03;;
10493;SDS011;5294;49.410;8.698;2022-10-22T15:07:41;3.73;;;2.33;;
10493;SDS011;5294;49.410;8.698;2022-10-22T15:10:10;3.53;;;2.30;;
10493;SDS011;5294;49.410;8.698;2022-10-22T15:12:35;5.13;;;2.80;;
10493;SDS011;5294;49.410;8.698;2022-10-22T15:15:03;3.87;;;2.57;;
10493;SDS011;5294;49.410;8.698;2022-10-22T15:17:29;3.67;;;2.80;;
10493;SDS011;5294;49.410;8.698;2022-10-22T15:19:55;4.13;;;2.50;;
10493;SDS011;5294;49.410;8.698;2022-10-22T15:22:23;4.73;;;2.77;;
10493;SDS011;5294;49.410;8.698;2022-10-22T15:24:51;7.43;;;2.80;;
10493;SDS011;5294;49.410;8.698;2022-10-22T15:27:17;2.60;;;2.40;;
10493;SDS011;5294;49.410;8.698;2022-10-22T15:29:45;5.27;;;2.70;;
10493;SDS011;5294;49.410;8.698;2022-10-22T15:32:11;6.77;;;2.77;;
10493;SDS011;5294;49.410;8.698;2022-10-22T15:34:37;4.50;;;2.63;;
10493;SDS011;5294;49.410;8.698;2022-10-22T15:37:05;2.83;;;2.43;;
10493;SDS011;5294;49.410;8.698;2022-10-22T15:39:34;8.83;;;2.57;;
10493;SDS011;5294;49.410;8.698;2022-10-22T15:42:03;3.27;;;2.80;;
10493;SDS011;5294;49.410;8.698;2022-10-22T15:44:29;6.77;;;2.83;;
10493;SDS011;5294;49.410;8.698;2022-10-22T15:46:57;2.57;;;2.37;;
10493;SDS011;5294;49.410;8.698;2022-10-22T15:49:26;5.27;;;2.60;;
10493;SDS011;5294;49.410;8.698;2022-10-22T15:51:52;4.97;;;2.60;;
10493;SDS011;5294;49.410;8.698;2022-10-22T15:54:22;4.70;;;2.80;;
10493;SDS011;5294;49.410;8.698;2022-10-22T15:56:52;5.80;;;3.10;;
10493;SDS011;5294;49.410;8.698;2022-10-22T15:59:19;3.33;;;2.53;;
10493;SDS011;5294;49.410;8.698;2022-10-22T16:01:47;4.53;;;2.90;;
10493;SDS011;5294;49.410;8.698;2022-10-22T16:04:14;4.87;;;2.60;;
10493;SDS011;5294;49.410;8.698;2022-10-22T16:06:44;5.43;;;2.87;;
10493;SDS011;5294;49.410;8.698;2022-10-22T16:09:18;4.77;;;2.90;;
10493;SDS011;5294;49.410;8.698;2022-10-22T16:11:48;2.70;;;2.07;;
10493;SDS011;5294;49.410;8.698;2022-10-22T16:14:15;3.07;;;2.20;;
10493;SDS011;5294;49.410;8.698;2022-10-22T16:16:44;3.97;;;2.47;;
10493;SDS011;5294;49.410;8.698;2022-10-22T16:19:12;4.83;;;3.57;;
10493;SDS011;5294;49.410;8.698;2022-10-22T16:21:38;5.23;;;3.67;;
10493;SDS011;5294;49.410;8.698;2022-10-22T16:24:11;4.33;;;3.03;;
10493;SDS011;5294;49.410;8.698;2022-10-22T16:26:37;4.63;;;2.93;;
10493;SDS011;5294;49.410;8.698;2022-10-22T16:29:03;8.40;;;3.70;;
10493;SDS011;5294;49.410;8.698;2022-10-22T16:31:37;6.57;;;3.10;;
10493;SDS011;5294;49.410;8.698;2022-10-22T16:34:06;4.20;;;3.80;;
10493;SDS011;5294;49.410;8.698;2022-10-22T16:36:32;5.37;;;3.30;;
10493;SDS011;5294;49.410;8.698;2022-10-22T16:39:03;7.37;;;3.80;;
10493;SDS011;5294;49.410;8.698;2022-10-22T16:41:30;6.47;;;3.60;;
10493;SDS011;5294;49.410;8.698;2022-10-22T16:44:03;6.13;;;3.80;;
10493;SDS011;5294;49.410;8.698;2022-10-22T16:46:30;6.90;;;3.70;;
10493;SDS011;5294;49.410;8.698;2022-10-22T16:48:56;6.97;;;3.27;;
10493;SDS011;5294;49.410;8.698;2022-10-22T16:51:25;5.57;;;3.43;;
10493;SDS011;5294;49.410;8.698;2022-10-22T16:53:52;5.80;;;3.60;;
10493;SDS011;5294;49.410;8.698;2022-10-22T16:56:19;6.27;;;4.17;;
10493;SDS011;5294;49.410;8.698;2022-10-22T16:58:46;4.23;;;3.17;;
10493;SDS011;5294;49.410;8.698;2022-10-22T17:01:15;7.73;;;3.73;;
10493;SDS011;5294;49.410;8.698;2022-10-22T17:03:41;6.30;;;3.90;;
10493;SDS011;5294;49.410;8.698;2022-10-22T17:06:07;8.20;;;4.20;;
10493;SDS011;5294;49.410;8.698;2022-10-22T17:08:33;8.80;;;4.07;;
10493;SDS011;5294;49.410;8.698;2022-10-22T17:13:35;5.27;;;3.57;;
10493;SDS011;5294;49.410;8.698;2022-10-22T17:16:02;6.03;;;4.00;;
10493;SDS011;5294;49.410;8.698;2022-10-22T17:18:31;5.70;;;3.57;;
10493;SDS011;5294;49.410;8.698;2022-10-22T17:20:58;6.17;;;3.70;;
10493;SDS011;5294;49.410;8.698;2022-10-22T17:23:24;6.47;;;3.40;;
10493;SDS011;5294;49.410;8.698;2022-10-22T17:25:56;4.53;;;3.07;;
10493;SDS011;5294;49.410;8.698;2022-10-22T17:28:23;4.70;;;3.40;;
10493;SDS011;5294;49.410;8.698;2022-10-22T17:30:49;5.28;;;3.20;;
10493;SDS011;5294;49.410;8.698;2022-10-22T17:33:14;5.10;;;3.27;;